sensor_id;sensor_type;location;lat;lon;timestamp;P1;durP1;ratioP1;P2;durP2;ratioP2
18302;SDS011;9277;37.980;23.748;2022-11-12T00:01:08;19.65;;;9.20;;
18302;SDS011;9277;37.980;23.748;2022-11-12T00:03:36;17.88;;;9.38;;
18302;SDS011;9277;37.980;23.748;2022-11-12T00:06:03;21.38;;;9.88;;
18302;SDS011;9277;37.980;23.748;2022-11-12T00:08:30;21.05;;;9.02;;
18302;SDS011;9277;37.980;23.748;2022-11-12T00:10:56;17.92;;;9.23;;
18302;SDS011;9277;37.980;23.748;2022-11-12T00:13:23;17.35;;;9.20;;
18302;SDS011;9277;37.980;23.748;2022-11-12T00:15:51;17.67;;;8.73;;
18302;SDS011;9277;37.980;23.748;2022-11-12T00:18:17;15.43;;;8.80;;
18302;SDS011;9277;37.980;23.748;2022-11-12T00:20:46;17.38;;;8.55;;
18302;SDS011;9277;37.980;23.748;2022-11-12T00:23:13;20.98;;;8.45;;
18302;SDS011;9277;37.980;23.748;2022-11-12T00:25:39;18.80;;;8.45;;
18302;SDS011;9277;37.980;23.748;2022-11-12T00:28:07;20.02;;;9.38;;
18302;SDS011;9277;37.980;23.748;2022-11-12T00:30:36;17.27;;;8.63;;
18302;SDS011;9277;37.980;23.748;2022-11-12T00:33:03;19.08;;;8.38;;
18302;SDS011;9277;37.980;23.748;2022-11-12T00:35:30;16.75;;;8.73;;
18302;SDS011;9277;37.980;23.748;2022-11-12T00:37:59;16.23;;;7.55;;
18302;SDS011;9277;37.980;23.748;2022-11-12T00:40:26;14.65;;;6.65;;
18302;SDS011;9277;37.980;23.748;2022-11-12T00:42:53;16.27;;;7.75;;
18302;SDS011;9277;37.980;23.748;2022-11-12T00:45:20;13.07;;;7.60;;
18302;SDS011;9277;37.980;23.748;2022-11-12T00:47:47;13.50;;;7.03;;
18302;SDS011;9277;37.980;23.748;2022-11-12T00:50:14;15.13;;;7.32;;
18302;SDS011;9277;37.980;23.748;2022-11-12T00:52:41;13.43;;;7.68;;
18302;SDS011;9277;37.980;23.748;2022-11-12T00:55:09;12.32;;;6.68;;
18302;SDS011;9277;37.980;23.748;2022-11-12T00:57:36;16.25;;;6.90;;
18302;SDS011;9277;37.980;23.748;2022-11-12T01:00:03;15.77;;;6.57;;
18302;SDS011;9277;37.980;23.748;2022-11-12T01:02:30;16.10;;;7.00;;
18302;SDS011;9277;37.980;23.748;2022-11-12T01:04:57;12.10;;;6.28;;
18302;SDS011;9277;37.980;23.748;2022-11-12T01:07:23;11.60;;;6.25;;
18302;SDS011;9277;37.980;23.748;2022-11-12T01:09:50;10.02;;;5.78;;
18302;SDS011;9277;37.980;23.748;2022-11-12T01:12:19;11.48;;;6.40;;
18302;SDS011;9277;37.980;23.748;2022-11-12T01:14:45;13.68;;;6.30;;
18302;SDS011;9277;37.980;23.748;2022-11-12T01:17:12;11.65;;;5.90;;
18302;SDS011;9277;37.980;23.748;2022-11-12T01:19:39;12.80;;;5.88;;
18302;SDS011;9277;37.980;23.748;2022-11-12T01:22:06;13.23;;;6.35;;
18302;SDS011;9277;37.980;23.748;2022-11-12T01:24:33;10.43;;;5.10;;
18302;SDS011;9277;37.980;23.748;2022-11-12T01:26:59;12.25;;;5.82;;
18302;SDS011;9277;37.980;23.748;2022-11-12T01:29:28;12.20;;;5.63;;
18302;SDS011;9277;37.980;23.748;2022-11-12T01:31:55;8.52;;;4.85;;
18302;SDS011;9277;37.980;23.748;2022-11-12T01:34:22;9.35;;;4.90;;
18302;SDS011;9277;37.980;23.748;2022-11-12T01:36:49;9.80;;;4.88;;
18302;SDS011;9277;37.980;23.748;2022-11-12T01:39:15;8.82;;;4.63;;
18302;SDS011;9277;37.980;23.748;2022-11-12T01:41:42;6.80;;;4.00;;
18302;SDS011;9277;37.980;23.748;2022-11-12T01:44:10;6.47;;;3.53;;
18302;SDS011;9277;37.980;23.748;2022-11-12T01:46:42;7.53;;;4.13;;
18302;SDS011;9277;37.980;23.748;2022-11-12T01:49:11;5.32;;;3.08;;
18302;SDS011;9277;37.980;23.748;2022-11-12T01:51:40;4.95;;;3.55;;
18302;SDS011;9277;37.980;23.748;2022-11-12T01:54:08;4.03;;;3.13;;
18302;SDS011;9277;37.980;23.748;2022-11-12T01:56:36;3.58;;;3.00;;
18302;SDS011;9277;37.980;23.748;2022-11-12T01:59:04;5.50;;;3.10;;
18302;SDS011;9277;37.980;23.748;2022-11-12T02:01:33;6.10;;;2.85;;
18302;SDS011;9277;37.980;23.748;2022-11-12T02:04:01;3.58;;;2.90;;
18302;SDS011;9277;37.980;23.748;2022-11-12T02:06:29;4.72;;;2.50;;
18302;SDS011;9277;37.980;23.748;2022-11-12T02:08:56;5.00;;;2.35;;
18302;SDS011;9277;37.980;23.748;2022-11-12T02:11:23;4.40;;;2.83;;
18302;SDS011;9277;37.980;23.748;2022-11-12T02:13:50;3.95;;;2.42;;
18302;SDS011;9277;37.980;23.748;2022-11-12T02:16:22;4.07;;;2.40;;
18302;SDS011;9277;37.980;23.748;2022-11-12T02:18:49;5.68;;;2.38;;
18302;SDS011;9277;37.980;23.748;2022-11-12T02:21:18;3.80;;;1.90;;
18302;SDS011;9277;37.980;23.748;2022-11-12T02:23:45;4.25;;;1.92;;
18302;SDS011;9277;37.980;23.748;2022-11-12T02:26:12;2.10;;;1.55;;
18302;SDS011;9277;37.980;23.748;2022-11-12T02:28:38;1.83;;;1.50;;
18302;SDS011;9277;37.980;23.748;2022-11-12T02:31:05;2.95;;;1.60;;
18302;SDS011;9277;37.980;23.748;2022-11-12T02:33:32;7.80;;;1.65;;
18302;SDS011;9277;37.980;23.748;2022-11-12T02:35:59;1.65;;;1.55;;
18302;SDS011;9277;37.980;23.748;2022-11-12T02:38:28;4.15;;;1.33;;
18302;SDS011;9277;37.980;23.748;2022-11-12T02:40:54;2.03;;;1.20;;
18302;SDS011;9277;37.980;23.748;2022-11-12T02:43:21;1.38;;;1.27;;
18302;SDS011;9277;37.980;23.748;2022-11-12T02:45:48;4.72;;;1.67;;
18302;SDS011;9277;37.980;23.748;2022-11-12T02:48:15;1.90;;;1.20;;
18302;SDS011;9277;37.980;23.748;2022-11-12T02:50:42;1.02;;;1.02;;
18302;SDS011;9277;37.980;23.748;2022-11-12T02:53:08;0.93;;;0.93;;
18302;SDS011;9277;37.980;23.748;2022-11-12T02:55:37;0.90;;;0.90;;
18302;SDS011;9277;37.980;23.748;2022-11-12T02:58:03;0.80;;;0.80;;
18302;SDS011;9277;37.980;23.748;2022-11-12T03:00:30;3.58;;;1.13;;
18302;SDS011;9277;37.980;23.748;2022-11-12T03:02:57;6.03;;;1.10;;
18302;SDS011;9277;37.980;23.748;2022-11-12T03:05:27;1.00;;;1.00;;
18302;SDS011;9277;37.980;23.748;2022-11-12T03:07:55;1.27;;;1.00;;
18302;SDS011;9277;37.980;23.748;2022-11-12T03:10:21;1.05;;;0.85;;
18302;SDS011;9277;37.980;23.748;2022-11-12T03:12:50;0.95;;;0.85;;
18302;SDS011;9277;37.980;23.748;2022-11-12T03:15:16;1.02;;;0.80;;
18302;SDS011;9277;37.980;23.748;2022-11-12T03:17:43;1.02;;;0.90;;
18302;SDS011;9277;37.980;23.748;2022-11-12T03:20:10;5.47;;;1.67;;
18302;SDS011;9277;37.980;23.748;2022-11-12T03:22:37;2.85;;;0.75;;
18302;SDS011;9277;37.980;23.748;2022-11-12T03:25:05;0.95;;;0.95;;
18302;SDS011;9277;37.980;23.748;2022-11-12T03:27:32;1.63;;;0.80;;
18302;SDS011;9277;37.980;23.748;2022-11-12T03:30:00;0.70;;;0.70;;
18302;SDS011;9277;37.980;23.748;2022-11-12T03:32:27;1.15;;;1.02;;
18302;SDS011;9277;37.980;23.748;2022-11-12T03:34:54;2.05;;;0.98;;
18302;SDS011;9277;37.980;23.748;2022-11-12T03:37:20;0.82;;;0.82;;
18302;SDS011;9277;37.980;23.748;2022-11-12T03:39:47;0.90;;;0.73;;
18302;SDS011;9277;37.980;23.748;2022-11-12T03:42:14;1.70;;;0.90;;
18302;SDS011;9277;37.980;23.748;2022-11-12T03:44:41;0.88;;;0.88;;
18302;SDS011;9277;37.980;23.748;2022-11-12T03:47:09;1.48;;;0.93;;
18302;SDS011;9277;37.980;23.748;2022-11-12T03:49:35;2.63;;;1.00;;
18302;SDS011;9277;37.980;23.748;2022-11-12T03:52:02;4.93;;;1.20;;
18302;SDS011;9277;37.980;23.748;2022-11-12T03:54:29;1.90;;;0.95;;
18302;SDS011;9277;37.980;23.748;2022-11-12T03:56:56;2.30;;;0.98;;
18302;SDS011;9277;37.980;23.748;2022-11-12T03:59:22;2.20;;;1.02;;
18302;SDS011;9277;37.980;23.748;2022-11-12T04:01:49;0.80;;;0.80;;
18302;SDS011;9277;37.980;23.748;2022-11-12T04:04:17;1.25;;;1.15;;
18302;SDS011;9277;37.980;23.748;2022-11-12T04:06:44;2.58;;;1.00;;
18302;SDS011;9277;37.980;23.748;2022-11-12T04:09:28;1.33;;;1.23;;
18302;SDS011;9277;37.980;23.748;2022-11-12T04:11:55;0.95;;;0.95;;
18302;SDS011;9277;37.980;23.748;2022-11-12T04:14:42;3.47;;;1.17;;
18302;SDS011;9277;37.980;23.748;2022-11-12T04:17:08;1.02;;;1.00;;
18302;SDS011;9277;37.980;23.748;2022-11-12T04:19:54;1.15;;;0.80;;
18302;SDS011;9277;37.980;23.748;2022-11-12T04:22:38;3.22;;;1.00;;
18302;SDS011;9277;37.980;23.748;2022-11-12T04:25:05;2.72;;;1.15;;
18302;SDS011;9277;37.980;23.748;2022-11-12T04:27:48;1.17;;;1.08;;
18302;SDS011;9277;37.980;23.748;2022-11-12T04:30:15;1.00;;;1.00;;
18302;SDS011;9277;37.980;23.748;2022-11-12T04:32:45;6.53;;;1.30;;
18302;SDS011;9277;37.980;23.748;2022-11-12T04:35:14;2.78;;;1.17;;
18302;SDS011;9277;37.980;23.748;2022-11-12T04:37:40;2.50;;;1.25;;
18302;SDS011;9277;37.980;23.748;2022-11-12T04:40:10;2.20;;;0.98;;
18302;SDS011;9277;37.980;23.748;2022-11-12T04:42:55;3.88;;;1.20;;
18302;SDS011;9277;37.980;23.748;2022-11-12T04:45:39;2.78;;;1.00;;
18302;SDS011;9277;37.980;23.748;2022-11-12T04:48:06;0.80;;;0.80;;
18302;SDS011;9277;37.980;23.748;2022-11-12T04:50:35;1.30;;;1.20;;
18302;SDS011;9277;37.980;23.748;2022-11-12T04:53:03;1.38;;;1.20;;
18302;SDS011;9277;37.980;23.748;2022-11-12T04:55:30;1.10;;;1.10;;
18302;SDS011;9277;37.980;23.748;2022-11-12T04:57:57;1.00;;;1.00;;
18302;SDS011;9277;37.980;23.748;2022-11-12T05:00:24;2.13;;;1.00;;
18302;SDS011;9277;37.980;23.748;2022-11-12T05:02:51;5.13;;;1.20;;
18302;SDS011;9277;37.980;23.748;2022-11-12T05:05:18;1.75;;;1.10;;
18302;SDS011;9277;37.980;23.748;2022-11-12T05:07:46;1.95;;;0.82;;
18302;SDS011;9277;37.980;23.748;2022-11-12T05:10:13;1.50;;;1.40;;
18302;SDS011;9277;37.980;23.748;2022-11-12T05:12:40;1.33;;;1.23;;
18302;SDS011;9277;37.980;23.748;2022-11-12T05:15:08;1.30;;;1.20;;
18302;SDS011;9277;37.980;23.748;2022-11-12T05:17:35;1.88;;;1.40;;
18302;SDS011;9277;37.980;23.748;2022-11-12T05:20:02;1.50;;;1.40;;
18302;SDS011;9277;37.980;23.748;2022-11-12T05:22:29;1.52;;;1.40;;
18302;SDS011;9277;37.980;23.748;2022-11-12T05:24:57;1.75;;;1.50;;
18302;SDS011;9277;37.980;23.748;2022-11-12T05:27:24;3.15;;;1.40;;
18302;SDS011;9277;37.980;23.748;2022-11-12T05:29:52;1.38;;;1.23;;
18302;SDS011;9277;37.980;23.748;2022-11-12T05:32:19;1.33;;;1.23;;
18302;SDS011;9277;37.980;23.748;2022-11-12T05:34:46;1.70;;;1.60;;
18302;SDS011;9277;37.980;23.748;2022-11-12T05:37:13;1.20;;;1.15;;
18302;SDS011;9277;37.980;23.748;2022-11-12T05:39:40;1.30;;;1.20;;
18302;SDS011;9277;37.980;23.748;2022-11-12T05:42:08;1.40;;;1.30;;
18302;SDS011;9277;37.980;23.748;2022-11-12T05:44:35;2.60;;;1.77;;
18302;SDS011;9277;37.980;23.748;2022-11-12T05:47:02;1.27;;;1.25;;
18302;SDS011;9277;37.980;23.748;2022-11-12T05:49:29;2.75;;;1.52;;
18302;SDS011;9277;37.980;23.748;2022-11-12T05:51:55;1.30;;;1.20;;
18302;SDS011;9277;37.980;23.748;2022-11-12T05:54:22;1.63;;;1.50;;
18302;SDS011;9277;37.980;23.748;2022-11-12T05:56:50;2.88;;;1.42;;
18302;SDS011;9277;37.980;23.748;2022-11-12T05:59:18;1.70;;;1.60;;
18302;SDS011;9277;37.980;23.748;2022-11-12T06:01:45;2.08;;;1.20;;
18302;SDS011;9277;37.980;23.748;2022-11-12T06:04:12;1.83;;;1.48;;
18302;SDS011;9277;37.980;23.748;2022-11-12T06:06:39;1.10;;;1.10;;
18302;SDS011;9277;37.980;23.748;2022-11-12T06:09:06;1.65;;;1.40;;
18302;SDS011;9277;37.980;23.748;2022-11-12T06:11:33;1.58;;;1.27;;
18302;SDS011;9277;37.980;23.748;2022-11-12T06:14:00;1.83;;;1.30;;
18302;SDS011;9277;37.980;23.748;2022-11-12T06:16:29;1.30;;;1.20;;
18302;SDS011;9277;37.980;23.748;2022-11-12T06:18:56;1.85;;;1.63;;
18302;SDS011;9277;37.980;23.748;2022-11-12T06:21:23;2.10;;;1.38;;
18302;SDS011;9277;37.980;23.748;2022-11-12T06:23:52;1.17;;;1.17;;
18302;SDS011;9277;37.980;23.748;2022-11-12T06:26:20;3.45;;;1.52;;
18302;SDS011;9277;37.980;23.748;2022-11-12T06:28:47;1.23;;;1.20;;
18302;SDS011;9277;37.980;23.748;2022-11-12T06:31:14;1.35;;;1.25;;
18302;SDS011;9277;37.980;23.748;2022-11-12T06:33:42;1.13;;;1.13;;
18302;SDS011;9277;37.980;23.748;2022-11-12T06:36:10;1.15;;;1.10;;
18302;SDS011;9277;37.980;23.748;2022-11-12T06:38:38;3.22;;;1.20;;
18302;SDS011;9277;37.980;23.748;2022-11-12T06:41:06;1.10;;;1.10;;
18302;SDS011;9277;37.980;23.748;2022-11-12T06:43:33;0.95;;;0.95;;
18302;SDS011;9277;37.980;23.748;2022-11-12T06:46:00;3.05;;;1.60;;
18302;SDS011;9277;37.980;23.748;2022-11-12T06:48:27;1.85;;;1.38;;
18302;SDS011;9277;37.980;23.748;2022-11-12T06:50:56;3.75;;;1.83;;
18302;SDS011;9277;37.980;23.748;2022-11-12T06:53:23;2.78;;;1.20;;
18302;SDS011;9277;37.980;23.748;2022-11-12T06:55:50;1.33;;;1.23;;
18302;SDS011;9277;37.980;23.748;2022-11-12T06:58:17;1.65;;;1.55;;
18302;SDS011;9277;37.980;23.748;2022-11-12T07:00:44;1.48;;;1.38;;
18302;SDS011;9277;37.980;23.748;2022-11-12T07:03:11;2.03;;;1.73;;
18302;SDS011;9277;37.980;23.748;2022-11-12T07:05:38;1.98;;;1.40;;
18302;SDS011;9277;37.980;23.748;2022-11-12T07:08:07;2.25;;;1.65;;
18302;SDS011;9277;37.980;23.748;2022-11-12T07:10:33;1.67;;;1.35;;
18302;SDS011;9277;37.980;23.748;2022-11-12T07:13:00;2.85;;;1.40;;
18302;SDS011;9277;37.980;23.748;2022-11-12T07:15:27;3.10;;;1.50;;
18302;SDS011;9277;37.980;23.748;2022-11-12T07:17:54;1.58;;;1.40;;
18302;SDS011;9277;37.980;23.748;2022-11-12T07:20:20;1.30;;;1.20;;
18302;SDS011;9277;37.980;23.748;2022-11-12T07:22:47;1.85;;;1.42;;
18302;SDS011;9277;37.980;23.748;2022-11-12T07:25:16;1.70;;;1.58;;
18302;SDS011;9277;37.980;23.748;2022-11-12T07:27:42;2.58;;;1.40;;
18302;SDS011;9277;37.980;23.748;2022-11-12T07:30:10;1.40;;;1.30;;
18302;SDS011;9277;37.980;23.748;2022-11-12T07:32:36;5.40;;;1.60;;
18302;SDS011;9277;37.980;23.748;2022-11-12T07:35:03;1.42;;;1.35;;
18302;SDS011;9277;37.980;23.748;2022-11-12T07:37:32;1.85;;;1.55;;
18302;SDS011;9277;37.980;23.748;2022-11-12T07:39:59;2.10;;;1.35;;
18302;SDS011;9277;37.980;23.748;2022-11-12T07:42:29;1.42;;;1.33;;
18302;SDS011;9277;37.980;23.748;2022-11-12T07:44:57;1.63;;;1.52;;
18302;SDS011;9277;37.980;23.748;2022-11-12T07:47:24;2.72;;;1.63;;
18302;SDS011;9277;37.980;23.748;2022-11-12T07:49:51;1.60;;;1.50;;
18302;SDS011;9277;37.980;23.748;2022-11-12T07:52:18;2.28;;;1.40;;
18302;SDS011;9277;37.980;23.748;2022-11-12T07:54:45;2.05;;;1.40;;
18302;SDS011;9277;37.980;23.748;2022-11-12T07:57:13;1.70;;;1.60;;
18302;SDS011;9277;37.980;23.748;2022-11-12T07:59:41;1.85;;;1.67;;
18302;SDS011;9277;37.980;23.748;2022-11-12T08:02:08;3.50;;;1.52;;
18302;SDS011;9277;37.980;23.748;2022-11-12T08:04:35;1.95;;;1.75;;
18302;SDS011;9277;37.980;23.748;2022-11-12T08:07:02;2.30;;;1.70;;
18302;SDS011;9277;37.980;23.748;2022-11-12T08:09:29;1.75;;;1.65;;
18302;SDS011;9277;37.980;23.748;2022-11-12T08:11:55;7.88;;;1.70;;
18302;SDS011;9277;37.980;23.748;2022-11-12T08:14:22;1.45;;;1.35;;
18302;SDS011;9277;37.980;23.748;2022-11-12T08:16:51;3.03;;;1.45;;
18302;SDS011;9277;37.980;23.748;2022-11-12T08:19:18;1.60;;;1.50;;
18302;SDS011;9277;37.980;23.748;2022-11-12T08:21:44;4.85;;;1.40;;
18302;SDS011;9277;37.980;23.748;2022-11-12T08:24:11;3.78;;;1.15;;
18302;SDS011;9277;37.980;23.748;2022-11-12T08:26:38;2.10;;;1.58;;
18302;SDS011;9277;37.980;23.748;2022-11-12T08:29:05;1.40;;;1.40;;
18302;SDS011;9277;37.980;23.748;2022-11-12T08:31:32;1.50;;;1.40;;
18302;SDS011;9277;37.980;23.748;2022-11-12T08:34:00;4.20;;;1.60;;
18302;SDS011;9277;37.980;23.748;2022-11-12T08:36:36;1.67;;;1.23;;
18302;SDS011;9277;37.980;23.748;2022-11-12T08:39:03;3.10;;;1.00;;
18302;SDS011;9277;37.980;23.748;2022-11-12T08:41:29;0.95;;;0.95;;
18302;SDS011;9277;37.980;23.748;2022-11-12T08:43:56;3.22;;;1.50;;
18302;SDS011;9277;37.980;23.748;2022-11-12T08:46:23;1.25;;;1.25;;
18302;SDS011;9277;37.980;23.748;2022-11-12T08:48:50;1.27;;;1.27;;
18302;SDS011;9277;37.980;23.748;2022-11-12T08:51:18;1.50;;;1.40;;
18302;SDS011;9277;37.980;23.748;2022-11-12T08:53:45;1.55;;;1.10;;
18302;SDS011;9277;37.980;23.748;2022-11-12T08:56:12;3.30;;;1.30;;
18302;SDS011;9277;37.980;23.748;2022-11-12T08:58:39;1.20;;;1.20;;
18302;SDS011;9277;37.980;23.748;2022-11-12T09:01:06;0.93;;;0.93;;
18302;SDS011;9277;37.980;23.748;2022-11-12T09:03:32;1.67;;;1.30;;
18302;SDS011;9277;37.980;23.748;2022-11-12T09:06:01;2.10;;;1.45;;
18302;SDS011;9277;37.980;23.748;2022-11-12T09:08:31;1.88;;;1.60;;
18302;SDS011;9277;37.980;23.748;2022-11-12T09:10:58;1.55;;;1.45;;
18302;SDS011;9277;37.980;23.748;2022-11-12T09:13:25;2.15;;;1.60;;
18302;SDS011;9277;37.980;23.748;2022-11-12T09:15:51;2.88;;;1.73;;
18302;SDS011;9277;37.980;23.748;2022-11-12T09:18:18;1.77;;;1.40;;
18302;SDS011;9277;37.980;23.748;2022-11-12T09:20:45;1.58;;;1.35;;
18302;SDS011;9277;37.980;23.748;2022-11-12T09:23:12;1.23;;;1.08;;
18302;SDS011;9277;37.980;23.748;2022-11-12T09:25:41;1.73;;;1.52;;
18302;SDS011;9277;37.980;23.748;2022-11-12T09:28:09;3.05;;;1.83;;
18302;SDS011;9277;37.980;23.748;2022-11-12T09:30:36;2.33;;;1.50;;
18302;SDS011;9277;37.980;23.748;2022-11-12T09:33:03;1.70;;;1.27;;
18302;SDS011;9277;37.980;23.748;2022-11-12T09:35:30;1.25;;;1.25;;
18302;SDS011;9277;37.980;23.748;2022-11-12T09:37:57;1.75;;;1.45;;
18302;SDS011;9277;37.980;23.748;2022-11-12T09:40:27;2.63;;;1.80;;
18302;SDS011;9277;37.980;23.748;2022-11-12T09:42:59;4.97;;;1.60;;
18302;SDS011;9277;37.980;23.748;2022-11-12T09:45:26;1.38;;;1.27;;
18302;SDS011;9277;37.980;23.748;2022-11-12T09:47:55;2.13;;;1.63;;
18302;SDS011;9277;37.980;23.748;2022-11-12T09:50:25;2.13;;;1.30;;
18302;SDS011;9277;37.980;23.748;2022-11-12T09:52:54;1.70;;;1.60;;
18302;SDS011;9277;37.980;23.748;2022-11-12T09:55:24;1.83;;;1.73;;
18302;SDS011;9277;37.980;23.748;2022-11-12T09:57:54;5.63;;;2.17;;
18302;SDS011;9277;37.980;23.748;2022-11-12T10:00:22;1.70;;;1.60;;
18302;SDS011;9277;37.980;23.748;2022-11-12T10:02:50;1.55;;;1.45;;
18302;SDS011;9277;37.980;23.748;2022-11-12T10:05:24;1.30;;;1.30;;
18302;SDS011;9277;37.980;23.748;2022-11-12T10:07:54;1.63;;;1.52;;
18302;SDS011;9277;37.980;23.748;2022-11-12T10:10:29;3.85;;;1.48;;
18302;SDS011;9277;37.980;23.748;2022-11-12T10:13:02;1.45;;;1.35;;
18302;SDS011;9277;37.980;23.748;2022-11-12T10:15:35;2.88;;;1.38;;
18302;SDS011;9277;37.980;23.748;2022-11-12T10:18:24;1.50;;;1.40;;
18302;SDS011;9277;37.980;23.748;2022-11-12T10:20:53;1.40;;;1.40;;
18302;SDS011;9277;37.980;23.748;2022-11-12T10:23:21;1.52;;;1.42;;
18302;SDS011;9277;37.980;23.748;2022-11-12T10:25:50;1.50;;;1.40;;
18302;SDS011;9277;37.980;23.748;2022-11-12T10:28:23;1.30;;;1.30;;
18302;SDS011;9277;37.980;23.748;2022-11-12T10:30:53;1.60;;;1.50;;
18302;SDS011;9277;37.980;23.748;2022-11-12T10:33:21;2.90;;;1.55;;
18302;SDS011;9277;37.980;23.748;2022-11-12T10:35:48;1.75;;;1.65;;
18302;SDS011;9277;37.980;23.748;2022-11-12T10:38:16;2.03;;;1.70;;
18302;SDS011;9277;37.980;23.748;2022-11-12T10:40:45;2.10;;;1.90;;
18302;SDS011;9277;37.980;23.748;2022-11-12T10:43:21;1.98;;;1.60;;
18302;SDS011;9277;37.980;23.748;2022-11-12T10:45:48;2.85;;;1.90;;
18302;SDS011;9277;37.980;23.748;2022-11-12T10:48:21;5.13;;;1.60;;
18302;SDS011;9277;37.980;23.748;2022-11-12T10:50:49;2.55;;;2.10;;
18302;SDS011;9277;37.980;23.748;2022-11-12T10:53:27;3.72;;;2.08;;
18302;SDS011;9277;37.980;23.748;2022-11-12T10:55:56;6.35;;;2.22;;
18302;SDS011;9277;37.980;23.748;2022-11-12T10:58:23;1.80;;;1.70;;
18302;SDS011;9277;37.980;23.748;2022-11-12T11:00:51;3.53;;;1.77;;
18302;SDS011;9277;37.980;23.748;2022-11-12T11:03:21;2.10;;;1.95;;
18302;SDS011;9277;37.980;23.748;2022-11-12T11:05:49;2.35;;;1.85;;
18302;SDS011;9277;37.980;23.748;2022-11-12T11:08:17;1.70;;;1.60;;
18302;SDS011;9277;37.980;23.748;2022-11-12T11:11:07;1.73;;;1.63;;
18302;SDS011;9277;37.980;23.748;2022-11-12T11:13:36;1.70;;;1.60;;
18302;SDS011;9277;37.980;23.748;2022-11-12T11:16:03;4.70;;;2.00;;
18302;SDS011;9277;37.980;23.748;2022-11-12T11:18:33;1.98;;;1.88;;
18302;SDS011;9277;37.980;23.748;2022-11-12T11:21:12;1.80;;;1.70;;
18302;SDS011;9277;37.980;23.748;2022-11-12T11:23:42;2.30;;;1.77;;
18302;SDS011;9277;37.980;23.748;2022-11-12T11:26:19;3.40;;;1.58;;
18302;SDS011;9277;37.980;23.748;2022-11-12T11:28:49;1.65;;;1.55;;
18302;SDS011;9277;37.980;23.748;2022-11-12T11:31:22;2.65;;;1.90;;
18302;SDS011;9277;37.980;23.748;2022-11-12T11:33:54;2.60;;;1.73;;
18302;SDS011;9277;37.980;23.748;2022-11-12T11:36:24;2.95;;;1.88;;
18302;SDS011;9277;37.980;23.748;2022-11-12T11:38:55;3.38;;;2.10;;
18302;SDS011;9277;37.980;23.748;2022-11-12T11:41:27;2.60;;;1.90;;
18302;SDS011;9277;37.980;23.748;2022-11-12T11:44:01;5.15;;;2.67;;
18302;SDS011;9277;37.980;23.748;2022-11-12T11:46:34;2.20;;;1.77;;
18302;SDS011;9277;37.980;23.748;2022-11-12T11:49:17;1.83;;;1.73;;
18302;SDS011;9277;37.980;23.748;2022-11-12T11:51:48;3.35;;;1.92;;
18302;SDS011;9277;37.980;23.748;2022-11-12T11:54:23;3.03;;;1.85;;
18302;SDS011;9277;37.980;23.748;2022-11-12T11:56:58;2.90;;;1.92;;
18302;SDS011;9277;37.980;23.748;2022-11-12T11:59:29;3.05;;;2.00;;
18302;SDS011;9277;37.980;23.748;2022-11-12T12:02:07;1.80;;;1.70;;
18302;SDS011;9277;37.980;23.748;2022-11-12T12:04:46;4.90;;;2.10;;
18302;SDS011;9277;37.980;23.748;2022-11-12T12:07:17;4.78;;;2.05;;
18302;SDS011;9277;37.980;23.748;2022-11-12T12:09:47;3.13;;;2.55;;
18302;SDS011;9277;37.980;23.748;2022-11-12T12:12:20;2.63;;;2.05;;
18302;SDS011;9277;37.980;23.748;2022-11-12T12:14:51;2.25;;;1.98;;
18302;SDS011;9277;37.980;23.748;2022-11-12T12:17:23;2.58;;;1.90;;
18302;SDS011;9277;37.980;23.748;2022-11-12T12:19:58;3.00;;;1.85;;
18302;SDS011;9277;37.980;23.748;2022-11-12T12:22:32;4.38;;;1.98;;
18302;SDS011;9277;37.980;23.748;2022-11-12T12:25:01;3.05;;;1.90;;
18302;SDS011;9277;37.980;23.748;2022-11-12T12:27:33;2.97;;;2.25;;
18302;SDS011;9277;37.980;23.748;2022-11-12T12:30:02;4.15;;;2.38;;
18302;SDS011;9277;37.980;23.748;2022-11-12T12:32:30;2.90;;;2.10;;
18302;SDS011;9277;37.980;23.748;2022-11-12T12:35:01;3.97;;;2.20;;
18302;SDS011;9277;37.980;23.748;2022-11-12T12:37:30;4.53;;;2.28;;
18302;SDS011;9277;37.980;23.748;2022-11-12T12:40:00;3.60;;;2.55;;
18302;SDS011;9277;37.980;23.748;2022-11-12T12:42:29;8.13;;;2.03;;
18302;SDS011;9277;37.980;23.748;2022-11-12T12:44:58;2.92;;;1.92;;
18302;SDS011;9277;37.980;23.748;2022-11-12T12:47:30;4.32;;;1.73;;
18302;SDS011;9277;37.980;23.748;2022-11-12T12:50:01;3.22;;;2.42;;
18302;SDS011;9277;37.980;23.748;2022-11-12T12:52:29;2.03;;;1.85;;
18302;SDS011;9277;37.980;23.748;2022-11-12T12:54:56;2.65;;;1.60;;
18302;SDS011;9277;37.980;23.748;2022-11-12T12:57:27;2.05;;;1.95;;
18302;SDS011;9277;37.980;23.748;2022-11-12T13:02:40;1.80;;;1.70;;
18302;SDS011;9277;37.980;23.748;2022-11-12T13:05:22;2.08;;;1.75;;
18302;SDS011;9277;37.980;23.748;2022-11-12T13:07:49;3.67;;;2.28;;
18302;SDS011;9277;37.980;23.748;2022-11-12T13:13:02;3.00;;;1.67;;
18302;SDS011;9277;37.980;23.748;2022-11-12T13:15:40;2.13;;;1.88;;
18302;SDS011;9277;37.980;23.748;2022-11-12T13:18:07;3.72;;;1.63;;
18302;SDS011;9277;37.980;23.748;2022-11-12T13:20:39;3.63;;;2.35;;
18302;SDS011;9277;37.980;23.748;2022-11-12T13:23:10;2.03;;;1.77;;
18302;SDS011;9277;37.980;23.748;2022-11-12T13:25:37;1.70;;;1.60;;
18302;SDS011;9277;37.980;23.748;2022-11-12T13:28:08;1.80;;;1.70;;
18302;SDS011;9277;37.980;23.748;2022-11-12T13:33:22;1.77;;;1.67;;
18302;SDS011;9277;37.980;23.748;2022-11-12T13:35:52;3.35;;;1.77;;
18302;SDS011;9277;37.980;23.748;2022-11-12T13:38:39;2.63;;;1.90;;
18302;SDS011;9277;37.980;23.748;2022-11-12T13:41:08;4.68;;;2.28;;
18302;SDS011;9277;37.980;23.748;2022-11-12T13:43:39;2.55;;;2.00;;
18302;SDS011;9277;37.980;23.748;2022-11-12T13:46:19;2.28;;;1.85;;
18302;SDS011;9277;37.980;23.748;2022-11-12T13:48:49;3.53;;;1.90;;
18302;SDS011;9277;37.980;23.748;2022-11-12T13:51:22;2.45;;;1.98;;
18302;SDS011;9277;37.980;23.748;2022-11-12T13:53:50;3.30;;;1.80;;
18302;SDS011;9277;37.980;23.748;2022-11-12T13:56:23;2.08;;;1.88;;
18302;SDS011;9277;37.980;23.748;2022-11-12T13:58:50;2.47;;;2.05;;
18302;SDS011;9277;37.980;23.748;2022-11-12T14:01:18;2.20;;;2.00;;
18302;SDS011;9277;37.980;23.748;2022-11-12T14:03:46;4.28;;;2.38;;
18302;SDS011;9277;37.980;23.748;2022-11-12T14:06:14;3.63;;;2.22;;
18302;SDS011;9277;37.980;23.748;2022-11-12T14:11:51;2.45;;;2.15;;
18302;SDS011;9277;37.980;23.748;2022-11-12T14:14:25;3.15;;;2.30;;
18302;SDS011;9277;37.980;23.748;2022-11-12T14:16:58;5.43;;;2.75;;
18302;SDS011;9277;37.980;23.748;2022-11-12T14:22:24;5.85;;;2.45;;
18302;SDS011;9277;37.980;23.748;2022-11-12T14:24:57;2.80;;;2.20;;
18302;SDS011;9277;37.980;23.748;2022-11-12T14:27:33;5.07;;;2.15;;
18302;SDS011;9277;37.980;23.748;2022-11-12T14:30:03;2.45;;;2.25;;
18302;SDS011;9277;37.980;23.748;2022-11-12T14:32:34;3.67;;;2.50;;
18302;SDS011;9277;37.980;23.748;2022-11-12T14:35:15;2.58;;;2.35;;
18302;SDS011;9277;37.980;23.748;2022-11-12T14:37:41;3.58;;;2.33;;
18302;SDS011;9277;37.980;23.748;2022-11-12T14:40:13;4.30;;;2.30;;
18302;SDS011;9277;37.980;23.748;2022-11-12T14:42:42;4.20;;;2.50;;
18302;SDS011;9277;37.980;23.748;2022-11-12T14:45:13;4.30;;;2.45;;
18302;SDS011;9277;37.980;23.748;2022-11-12T14:47:40;3.03;;;2.60;;
18302;SDS011;9277;37.980;23.748;2022-11-12T14:50:07;3.13;;;2.53;;
18302;SDS011;9277;37.980;23.748;2022-11-12T14:52:35;4.10;;;2.35;;
18302;SDS011;9277;37.980;23.748;2022-11-12T14:55:04;3.72;;;2.47;;
18302;SDS011;9277;37.980;23.748;2022-11-12T14:57:34;4.68;;;2.30;;
18302;SDS011;9277;37.980;23.748;2022-11-12T15:00:16;3.85;;;2.28;;
18302;SDS011;9277;37.980;23.748;2022-11-12T15:02:44;5.60;;;2.35;;
18302;SDS011;9277;37.980;23.748;2022-11-12T15:05:11;4.07;;;2.67;;
18302;SDS011;9277;37.980;23.748;2022-11-12T15:07:49;4.65;;;2.38;;
18302;SDS011;9277;37.980;23.748;2022-11-12T15:10:30;5.68;;;2.47;;